sensor_id;sensor_type;location;lat;lon;timestamp;P1;durP1;ratioP1;P2;durP2;ratioP2
22778;SDS011;11556;51.194;3.800;2022-07-18T00:00:58;7.55;;;3.45;;
22778;SDS011;11556;51.194;3.800;2022-07-18T00:03:24;6.30;;;3.33;;
22778;SDS011;11556;51.194;3.800;2022-07-18T00:05:50;6.65;;;3.33;;
22778;SDS011;11556;51.194;3.800;2022-07-18T00:08:16;7.35;;;3.40;;
22778;SDS011;11556;51.194;3.800;2022-07-18T00:10:41;5.15;;;3.08;;
22778;SDS011;11556;51.194;3.800;2022-07-18T00:13:08;6.88;;;2.85;;
22778;SDS011;11556;51.194;3.800;2022-07-18T00:15:35;4.60;;;2.70;;
22778;SDS011;11556;51.194;3.800;2022-07-18T00:18:01;7.13;;;2.65;;
22778;SDS011;11556;51.194;3.800;2022-07-18T00:20:27;6.93;;;2.92;;
22778;SDS011;11556;51.194;3.800;2022-07-18T00:22:53;8.27;;;3.13;;
22778;SDS011;11556;51.194;3.800;2022-07-18T00:25:19;6.45;;;2.67;;
22778;SDS011;11556;51.194;3.800;2022-07-18T00:27:44;4.95;;;3.22;;
22778;SDS011;11556;51.194;3.800;2022-07-18T00:30:10;6.38;;;2.92;;
22778;SDS011;11556;51.194;3.800;2022-07-18T00:32:36;6.25;;;3.20;;
22778;SDS011;11556;51.194;3.800;2022-07-18T00:35:02;5.82;;;3.47;;
22778;SDS011;11556;51.194;3.800;2022-07-18T00:37:28;5.63;;;2.92;;
22778;SDS011;11556;51.194;3.800;2022-07-18T00:39:54;4.60;;;2.70;;
22778;SDS011;11556;51.194;3.800;2022-07-18T00:42:19;5.85;;;3.08;;
22778;SDS011;11556;51.194;3.800;2022-07-18T00:44:45;7.22;;;2.53;;
22778;SDS011;11556;51.194;3.800;2022-07-18T00:47:11;4.95;;;2.72;;
22778;SDS011;11556;51.194;3.800;2022-07-18T00:49:36;5.43;;;3.00;;
22778;SDS011;11556;51.194;3.800;2022-07-18T00:52:02;9.23;;;3.03;;
22778;SDS011;11556;51.194;3.800;2022-07-18T00:54:28;7.53;;;2.72;;
22778;SDS011;11556;51.194;3.800;2022-07-18T00:56:56;4.93;;;3.20;;
22778;SDS011;11556;51.194;3.800;2022-07-18T00:59:22;6.30;;;2.42;;
22778;SDS011;11556;51.194;3.800;2022-07-18T01:02:08;8.80;;;2.63;;
22778;SDS011;11556;51.194;3.800;2022-07-18T01:04:34;10.05;;;3.13;;
22778;SDS011;11556;51.194;3.800;2022-07-18T01:06:59;6.43;;;3.10;;
22778;SDS011;11556;51.194;3.800;2022-07-18T01:09:25;3.83;;;2.38;;
22778;SDS011;11556;51.194;3.800;2022-07-18T01:11:50;5.75;;;2.78;;
22778;SDS011;11556;51.194;3.800;2022-07-18T01:14:16;6.43;;;2.92;;
22778;SDS011;11556;51.194;3.800;2022-07-18T01:16:42;5.15;;;2.55;;
22778;SDS011;11556;51.194;3.800;2022-07-18T01:19:08;6.22;;;2.70;;
22778;SDS011;11556;51.194;3.800;2022-07-18T01:21:35;8.77;;;2.70;;
22778;SDS011;11556;51.194;3.800;2022-07-18T01:24:01;4.57;;;2.80;;
22778;SDS011;11556;51.194;3.800;2022-07-18T01:26:27;8.38;;;2.67;;
22778;SDS011;11556;51.194;3.800;2022-07-18T01:28:53;6.45;;;2.60;;
22778;SDS011;11556;51.194;3.800;2022-07-18T01:31:18;4.85;;;2.45;;
22778;SDS011;11556;51.194;3.800;2022-07-18T01:33:44;6.75;;;2.90;;
22778;SDS011;11556;51.194;3.800;2022-07-18T01:36:10;5.82;;;2.70;;
22778;SDS011;11556;51.194;3.800;2022-07-18T01:38:35;4.30;;;2.78;;
22778;SDS011;11556;51.194;3.800;2022-07-18T01:41:01;12.80;;;2.50;;
22778;SDS011;11556;51.194;3.800;2022-07-18T01:43:27;5.53;;;2.63;;
22778;SDS011;11556;51.194;3.800;2022-07-18T01:45:53;4.90;;;2.60;;
22778;SDS011;11556;51.194;3.800;2022-07-18T01:48:20;9.88;;;2.50;;
22778;SDS011;11556;51.194;3.800;2022-07-18T01:50:48;4.65;;;2.83;;
22778;SDS011;11556;51.194;3.800;2022-07-18T01:53:14;9.48;;;2.88;;
22778;SDS011;11556;51.194;3.800;2022-07-18T01:55:40;4.53;;;2.47;;
22778;SDS011;11556;51.194;3.800;2022-07-18T01:58:06;5.93;;;2.63;;
22778;SDS011;11556;51.194;3.800;2022-07-18T02:00:31;6.60;;;2.90;;
22778;SDS011;11556;51.194;3.800;2022-07-18T02:02:57;7.20;;;2.40;;
22778;SDS011;11556;51.194;3.800;2022-07-18T02:05:23;4.75;;;2.50;;
22778;SDS011;11556;51.194;3.800;2022-07-18T02:07:48;5.13;;;2.85;;
22778;SDS011;11556;51.194;3.800;2022-07-18T02:10:15;8.55;;;2.63;;
22778;SDS011;11556;51.194;3.800;2022-07-18T02:12:43;5.05;;;2.60;;
22778;SDS011;11556;51.194;3.800;2022-07-18T02:15:09;6.25;;;3.03;;
22778;SDS011;11556;51.194;3.800;2022-07-18T02:17:37;3.55;;;2.30;;
22778;SDS011;11556;51.194;3.800;2022-07-18T02:20:04;9.18;;;3.25;;
22778;SDS011;11556;51.194;3.800;2022-07-18T02:22:31;4.68;;;2.40;;
22778;SDS011;11556;51.194;3.800;2022-07-18T02:24:57;5.72;;;2.60;;
22778;SDS011;11556;51.194;3.800;2022-07-18T02:27:23;4.32;;;2.60;;
22778;SDS011;11556;51.194;3.800;2022-07-18T02:29:49;6.18;;;2.67;;
22778;SDS011;11556;51.194;3.800;2022-07-18T02:32:15;4.15;;;2.40;;
22778;SDS011;11556;51.194;3.800;2022-07-18T02:34:41;6.20;;;2.60;;
22778;SDS011;11556;51.194;3.800;2022-07-18T02:37:06;3.35;;;2.40;;
22778;SDS011;11556;51.194;3.800;2022-07-18T02:39:32;4.45;;;2.28;;
22778;SDS011;11556;51.194;3.800;2022-07-18T02:41:59;5.25;;;2.42;;
22778;SDS011;11556;51.194;3.800;2022-07-18T02:44:25;5.63;;;2.78;;
22778;SDS011;11556;51.194;3.800;2022-07-18T02:46:51;4.10;;;2.60;;
22778;SDS011;11556;51.194;3.800;2022-07-18T02:49:17;5.85;;;2.60;;
22778;SDS011;11556;51.194;3.800;2022-07-18T02:52:12;4.70;;;2.40;;
22778;SDS011;11556;51.194;3.800;2022-07-18T02:54:38;7.90;;;2.40;;
22778;SDS011;11556;51.194;3.800;2022-07-18T02:57:04;4.43;;;2.20;;
22778;SDS011;11556;51.194;3.800;2022-07-18T02:59:30;7.38;;;2.20;;
22778;SDS011;11556;51.194;3.800;2022-07-18T03:01:56;7.28;;;2.50;;
22778;SDS011;11556;51.194;3.800;2022-07-18T03:04:22;6.35;;;2.38;;
22778;SDS011;11556;51.194;3.800;2022-07-18T03:06:49;3.88;;;2.33;;
22778;SDS011;11556;51.194;3.800;2022-07-18T03:09:15;4.30;;;2.20;;
22778;SDS011;11556;51.194;3.800;2022-07-18T03:11:41;7.72;;;1.85;;
22778;SDS011;11556;51.194;3.800;2022-07-18T03:14:07;5.32;;;2.22;;
22778;SDS011;11556;51.194;3.800;2022-07-18T03:16:33;14.23;;;3.13;;
22778;SDS011;11556;51.194;3.800;2022-07-18T03:18:59;17.85;;;2.60;;
22778;SDS011;11556;51.194;3.800;2022-07-18T03:21:25;9.88;;;2.88;;
22778;SDS011;11556;51.194;3.800;2022-07-18T03:23:50;4.93;;;2.10;;
22778;SDS011;11556;51.194;3.800;2022-07-18T03:26:16;4.88;;;2.33;;
22778;SDS011;11556;51.194;3.800;2022-07-18T03:28:42;4.97;;;2.55;;
22778;SDS011;11556;51.194;3.800;2022-07-18T03:31:07;5.10;;;2.22;;
22778;SDS011;11556;51.194;3.800;2022-07-18T03:33:33;4.07;;;1.98;;
22778;SDS011;11556;51.194;3.800;2022-07-18T03:35:59;6.28;;;2.10;;
22778;SDS011;11556;51.194;3.800;2022-07-18T03:38:24;6.22;;;2.30;;
22778;SDS011;11556;51.194;3.800;2022-07-18T03:40:50;6.90;;;2.15;;
22778;SDS011;11556;51.194;3.800;2022-07-18T03:43:16;4.93;;;2.38;;
22778;SDS011;11556;51.194;3.800;2022-07-18T03:45:41;4.70;;;2.08;;
22778;SDS011;11556;51.194;3.800;2022-07-18T03:48:07;4.95;;;2.38;;
22778;SDS011;11556;51.194;3.800;2022-07-18T03:50:33;5.95;;;2.17;;
22778;SDS011;11556;51.194;3.800;2022-07-18T03:52:58;8.02;;;2.45;;
22778;SDS011;11556;51.194;3.800;2022-07-18T03:55:25;6.55;;;2.38;;
22778;SDS011;11556;51.194;3.800;2022-07-18T03:57:50;5.60;;;2.40;;
22778;SDS011;11556;51.194;3.800;2022-07-18T04:00:16;6.65;;;2.20;;
22778;SDS011;11556;51.194;3.800;2022-07-18T04:02:43;5.95;;;2.50;;
22778;SDS011;11556;51.194;3.800;2022-07-18T04:05:10;7.93;;;2.67;;
22778;SDS011;11556;51.194;3.800;2022-07-18T04:07:37;6.75;;;2.45;;
22778;SDS011;11556;51.194;3.800;2022-07-18T04:10:03;4.43;;;2.85;;
22778;SDS011;11556;51.194;3.800;2022-07-18T04:12:30;8.00;;;2.40;;
22778;SDS011;11556;51.194;3.800;2022-07-18T04:14:56;5.68;;;2.90;;
22778;SDS011;11556;51.194;3.800;2022-07-18T04:17:21;3.88;;;2.60;;
22778;SDS011;11556;51.194;3.800;2022-07-18T04:19:47;7.10;;;2.58;;
22778;SDS011;11556;51.194;3.800;2022-07-18T04:22:13;7.25;;;2.70;;
22778;SDS011;11556;51.194;3.800;2022-07-18T04:24:38;4.47;;;2.60;;
22778;SDS011;11556;51.194;3.800;2022-07-18T04:27:04;6.60;;;2.50;;
22778;SDS011;11556;51.194;3.800;2022-07-18T04:29:30;6.28;;;2.40;;
22778;SDS011;11556;51.194;3.800;2022-07-18T04:31:57;10.45;;;2.80;;
22778;SDS011;11556;51.194;3.800;2022-07-18T04:34:23;9.82;;;3.15;;
22778;SDS011;11556;51.194;3.800;2022-07-18T04:36:48;7.93;;;2.42;;
22778;SDS011;11556;51.194;3.800;2022-07-18T04:39:14;6.65;;;2.55;;
22778;SDS011;11556;51.194;3.800;2022-07-18T04:41:41;6.82;;;2.60;;
22778;SDS011;11556;51.194;3.800;2022-07-18T04:44:07;6.10;;;3.08;;
22778;SDS011;11556;51.194;3.800;2022-07-18T04:46:33;7.43;;;2.70;;
22778;SDS011;11556;51.194;3.800;2022-07-18T04:48:59;5.93;;;2.50;;
22778;SDS011;11556;51.194;3.800;2022-07-18T04:51:25;5.63;;;2.83;;
22778;SDS011;11556;51.194;3.800;2022-07-18T04:53:50;5.60;;;2.70;;
22778;SDS011;11556;51.194;3.800;2022-07-18T04:56:16;9.60;;;2.92;;
22778;SDS011;11556;51.194;3.800;2022-07-18T04:58:41;10.40;;;3.28;;
22778;SDS011;11556;51.194;3.800;2022-07-18T05:01:07;9.98;;;3.00;;
22778;SDS011;11556;51.194;3.800;2022-07-18T05:03:33;7.32;;;3.08;;
22778;SDS011;11556;51.194;3.800;2022-07-18T05:05:58;14.32;;;4.13;;
22778;SDS011;11556;51.194;3.800;2022-07-18T05:08:24;11.52;;;3.70;;
22778;SDS011;11556;51.194;3.800;2022-07-18T05:10:49;9.75;;;3.30;;
22778;SDS011;11556;51.194;3.800;2022-07-18T05:13:15;9.40;;;3.17;;
22778;SDS011;11556;51.194;3.800;2022-07-18T05:15:41;6.97;;;2.90;;
22778;SDS011;11556;51.194;3.800;2022-07-18T05:18:06;9.68;;;3.22;;
22778;SDS011;11556;51.194;3.800;2022-07-18T05:20:32;13.75;;;3.70;;
22778;SDS011;11556;51.194;3.800;2022-07-18T05:22:58;10.15;;;3.88;;
22778;SDS011;11556;51.194;3.800;2022-07-18T05:25:24;11.77;;;3.95;;
22778;SDS011;11556;51.194;3.800;2022-07-18T05:27:50;11.75;;;4.90;;
22778;SDS011;11556;51.194;3.800;2022-07-18T05:30:17;11.07;;;4.30;;
22778;SDS011;11556;51.194;3.800;2022-07-18T05:32:43;14.30;;;4.93;;
22778;SDS011;11556;51.194;3.800;2022-07-18T05:35:09;24.40;;;5.10;;
22778;SDS011;11556;51.194;3.800;2022-07-18T05:37:37;15.35;;;5.05;;
22778;SDS011;11556;51.194;3.800;2022-07-18T05:40:04;12.95;;;4.88;;
22778;SDS011;11556;51.194;3.800;2022-07-18T05:42:31;13.80;;;4.65;;
22778;SDS011;11556;51.194;3.800;2022-07-18T05:44:56;13.55;;;4.70;;
22778;SDS011;11556;51.194;3.800;2022-07-18T05:47:22;12.38;;;5.28;;
22778;SDS011;11556;51.194;3.800;2022-07-18T05:49:48;11.95;;;5.30;;
22778;SDS011;11556;51.194;3.800;2022-07-18T05:52:13;14.57;;;5.22;;
22778;SDS011;11556;51.194;3.800;2022-07-18T05:54:39;11.18;;;5.03;;
22778;SDS011;11556;51.194;3.800;2022-07-18T05:57:05;13.95;;;4.97;;
22778;SDS011;11556;51.194;3.800;2022-07-18T05:59:30;12.85;;;5.15;;
22778;SDS011;11556;51.194;3.800;2022-07-18T06:01:56;12.13;;;4.75;;
22778;SDS011;11556;51.194;3.800;2022-07-18T06:04:22;15.13;;;5.22;;
22778;SDS011;11556;51.194;3.800;2022-07-18T06:06:47;16.58;;;5.30;;
22778;SDS011;11556;51.194;3.800;2022-07-18T06:09:15;19.88;;;6.05;;
22778;SDS011;11556;51.194;3.800;2022-07-18T06:11:42;23.95;;;6.60;;
22778;SDS011;11556;51.194;3.800;2022-07-18T06:14:07;24.52;;;7.13;;
22778;SDS011;11556;51.194;3.800;2022-07-18T06:16:33;30.85;;;8.55;;
22778;SDS011;11556;51.194;3.800;2022-07-18T06:18:59;35.70;;;9.52;;
22778;SDS011;11556;51.194;3.800;2022-07-18T06:21:24;44.15;;;10.65;;
22778;SDS011;11556;51.194;3.800;2022-07-18T06:23:51;41.30;;;10.82;;
22778;SDS011;11556;51.194;3.800;2022-07-18T06:26:16;52.92;;;11.43;;
22778;SDS011;11556;51.194;3.800;2022-07-18T06:28:42;53.40;;;11.68;;
22778;SDS011;11556;51.194;3.800;2022-07-18T06:31:08;35.40;;;10.68;;
22778;SDS011;11556;51.194;3.800;2022-07-18T06:33:33;37.58;;;11.50;;
22778;SDS011;11556;51.194;3.800;2022-07-18T06:35:59;50.88;;;11.60;;
22778;SDS011;11556;51.194;3.800;2022-07-18T06:38:25;44.45;;;11.30;;
22778;SDS011;11556;51.194;3.800;2022-07-18T06:40:50;60.03;;;12.15;;
22778;SDS011;11556;51.194;3.800;2022-07-18T06:43:16;48.13;;;12.07;;
22778;SDS011;11556;51.194;3.800;2022-07-18T06:45:47;42.63;;;10.65;;
22778;SDS011;11556;51.194;3.800;2022-07-18T06:48:14;48.10;;;10.32;;
22778;SDS011;11556;51.194;3.800;2022-07-18T06:50:40;55.03;;;9.70;;
22778;SDS011;11556;51.194;3.800;2022-07-18T06:53:06;56.63;;;10.65;;
22778;SDS011;11556;51.194;3.800;2022-07-18T06:55:32;41.17;;;10.55;;
22778;SDS011;11556;51.194;3.800;2022-07-18T06:57:57;35.05;;;9.52;;
22778;SDS011;11556;51.194;3.800;2022-07-18T07:00:23;31.52;;;9.20;;
22778;SDS011;11556;51.194;3.800;2022-07-18T07:02:49;40.67;;;10.13;;
22778;SDS011;11556;51.194;3.800;2022-07-18T07:05:16;61.75;;;11.13;;
22778;SDS011;11556;51.194;3.800;2022-07-18T07:07:43;49.72;;;11.13;;
22778;SDS011;11556;51.194;3.800;2022-07-18T07:10:09;74.05;;;14.77;;
22778;SDS011;11556;51.194;3.800;2022-07-18T07:12:41;84.15;;;14.43;;
22778;SDS011;11556;51.194;3.800;2022-07-18T07:15:09;59.35;;;10.80;;
22778;SDS011;11556;51.194;3.800;2022-07-18T07:17:38;22.40;;;5.53;;
22778;SDS011;11556;51.194;3.800;2022-07-18T07:20:04;21.58;;;4.95;;
22778;SDS011;11556;51.194;3.800;2022-07-18T07:22:31;15.23;;;5.38;;
22778;SDS011;11556;51.194;3.800;2022-07-18T07:25:17;25.27;;;5.85;;
22778;SDS011;11556;51.194;3.800;2022-07-18T07:27:44;21.27;;;6.28;;
22778;SDS011;11556;51.194;3.800;2022-07-18T07:30:10;26.95;;;7.10;;
22778;SDS011;11556;51.194;3.800;2022-07-18T07:32:37;28.27;;;8.82;;
22778;SDS011;11556;51.194;3.800;2022-07-18T07:35:04;25.35;;;7.85;;
22778;SDS011;11556;51.194;3.800;2022-07-18T07:37:32;22.30;;;7.82;;
22778;SDS011;11556;51.194;3.800;2022-07-18T07:39:58;24.23;;;8.07;;
22778;SDS011;11556;51.194;3.800;2022-07-18T07:42:24;28.40;;;8.63;;
22778;SDS011;11556;51.194;3.800;2022-07-18T07:44:50;24.67;;;9.07;;
22778;SDS011;11556;51.194;3.800;2022-07-18T07:47:15;17.63;;;6.60;;
22778;SDS011;11556;51.194;3.800;2022-07-18T07:49:41;18.33;;;5.55;;
22778;SDS011;11556;51.194;3.800;2022-07-18T07:52:07;17.40;;;6.38;;
22778;SDS011;11556;51.194;3.800;2022-07-18T07:54:32;26.75;;;7.38;;
22778;SDS011;11556;51.194;3.800;2022-07-18T07:56:58;27.45;;;8.77;;
22778;SDS011;11556;51.194;3.800;2022-07-18T07:59:24;23.92;;;7.43;;
22778;SDS011;11556;51.194;3.800;2022-07-18T08:01:49;27.27;;;8.05;;
22778;SDS011;11556;51.194;3.800;2022-07-18T08:04:15;28.85;;;9.73;;
22778;SDS011;11556;51.194;3.800;2022-07-18T08:06:41;24.42;;;7.35;;
22778;SDS011;11556;51.194;3.800;2022-07-18T08:09:06;24.13;;;5.43;;
22778;SDS011;11556;51.194;3.800;2022-07-18T08:11:33;17.85;;;5.75;;
22778;SDS011;11556;51.194;3.800;2022-07-18T08:13:59;20.95;;;6.07;;
22778;SDS011;11556;51.194;3.800;2022-07-18T08:16:25;17.00;;;5.32;;
22778;SDS011;11556;51.194;3.800;2022-07-18T08:18:50;20.45;;;3.95;;
22778;SDS011;11556;51.194;3.800;2022-07-18T08:21:16;17.13;;;4.10;;
22778;SDS011;11556;51.194;3.800;2022-07-18T08:23:41;15.15;;;5.25;;
22778;SDS011;11556;51.194;3.800;2022-07-18T08:26:08;18.98;;;5.47;;
22778;SDS011;11556;51.194;3.800;2022-07-18T08:28:33;16.95;;;6.78;;
22778;SDS011;11556;51.194;3.800;2022-07-18T08:30:59;23.85;;;6.72;;
22778;SDS011;11556;51.194;3.800;2022-07-18T08:33:25;21.80;;;7.00;;
22778;SDS011;11556;51.194;3.800;2022-07-18T08:35:50;24.98;;;6.78;;
22778;SDS011;11556;51.194;3.800;2022-07-18T08:38:16;17.35;;;7.68;;
22778;SDS011;11556;51.194;3.800;2022-07-18T08:40:41;20.27;;;8.13;;
22778;SDS011;11556;51.194;3.800;2022-07-18T08:43:08;15.25;;;8.23;;
22778;SDS011;11556;51.194;3.800;2022-07-18T08:45:35;22.52;;;9.48;;
22778;SDS011;11556;51.194;3.800;2022-07-18T08:48:01;16.02;;;9.50;;
22778;SDS011;11556;51.194;3.800;2022-07-18T08:50:26;15.77;;;9.52;;
22778;SDS011;11556;51.194;3.800;2022-07-18T08:52:52;14.85;;;8.60;;
22778;SDS011;11556;51.194;3.800;2022-07-18T08:55:18;17.80;;;9.05;;
22778;SDS011;11556;51.194;3.800;2022-07-18T08:57:44;14.23;;;8.85;;
22778;SDS011;11556;51.194;3.800;2022-07-18T09:00:10;20.85;;;7.72;;
22778;SDS011;11556;51.194;3.800;2022-07-18T09:02:36;15.40;;;9.35;;
22778;SDS011;11556;51.194;3.800;2022-07-18T09:05:03;19.58;;;10.18;;
22778;SDS011;11556;51.194;3.800;2022-07-18T09:07:31;18.33;;;9.02;;
22778;SDS011;11556;51.194;3.800;2022-07-18T09:10:00;18.75;;;8.02;;
22778;SDS011;11556;51.194;3.800;2022-07-18T09:12:29;12.00;;;7.50;;
22778;SDS011;11556;51.194;3.800;2022-07-18T09:15:08;12.05;;;6.10;;
22778;SDS011;11556;51.194;3.800;2022-07-18T09:17:38;13.80;;;7.90;;
22778;SDS011;11556;51.194;3.800;2022-07-18T09:20:08;9.27;;;4.70;;
22778;SDS011;11556;51.194;3.800;2022-07-18T09:22:37;13.15;;;4.22;;
22778;SDS011;11556;51.194;3.800;2022-07-18T09:32:33;10.73;;;4.32;;
22778;SDS011;11556;51.194;3.800;2022-07-18T09:35:06;11.88;;;4.53;;
22778;SDS011;11556;51.194;3.800;2022-07-18T09:37:33;9.60;;;3.40;;
22778;SDS011;11556;51.194;3.800;2022-07-18T09:40:14;13.27;;;4.10;;
22778;SDS011;11556;51.194;3.800;2022-07-18T09:42:40;9.15;;;4.68;;
22778;SDS011;11556;51.194;3.800;2022-07-18T09:45:06;13.57;;;4.70;;
22778;SDS011;11556;51.194;3.800;2022-07-18T09:47:37;3.65;;;3.03;;
22778;SDS011;11556;51.194;3.800;2022-07-18T09:50:21;10.23;;;3.30;;
22778;SDS011;11556;51.194;3.800;2022-07-18T09:53:24;4.07;;;2.50;;
22778;SDS011;11556;51.194;3.800;2022-07-18T09:55:51;5.00;;;2.00;;
22778;SDS011;11556;51.194;3.800;2022-07-18T09:58:20;6.70;;;1.80;;
22778;SDS011;11556;51.194;3.800;2022-07-18T10:00:47;6.30;;;2.50;;
22778;SDS011;11556;51.194;3.800;2022-07-18T10:03:13;7.68;;;3.00;;
22778;SDS011;11556;51.194;3.800;2022-07-18T10:05:40;9.98;;;2.63;;
22778;SDS011;11556;51.194;3.800;2022-07-18T10:08:10;5.65;;;1.83;;
22778;SDS011;11556;51.194;3.800;2022-07-18T10:10:41;6.40;;;2.05;;
22778;SDS011;11556;51.194;3.800;2022-07-18T10:13:08;6.70;;;2.30;;
22778;SDS011;11556;51.194;3.800;2022-07-18T10:15:36;7.75;;;2.53;;
22778;SDS011;11556;51.194;3.800;2022-07-18T10:18:04;6.90;;;2.90;;
22778;SDS011;11556;51.194;3.800;2022-07-18T10:20:39;7.05;;;1.50;;
22778;SDS011;11556;51.194;3.800;2022-07-18T10:23:08;6.57;;;1.20;;
22778;SDS011;11556;51.194;3.800;2022-07-18T10:25:45;4.90;;;1.73;;
22778;SDS011;11556;51.194;3.800;2022-07-18T10:33:52;3.05;;;1.30;;
22778;SDS011;11556;51.194;3.800;2022-07-18T10:36:23;3.83;;;1.20;;
22778;SDS011;11556;51.194;3.800;2022-07-18T10:57:27;2.03;;;1.30;;
22778;SDS011;11556;51.194;3.800;2022-07-18T11:02:42;3.50;;;1.20;;
22778;SDS011;11556;51.194;3.800;2022-07-18T11:26:20;3.55;;;1.40;;
22778;SDS011;11556;51.194;3.800;2022-07-18T11:29:22;4.20;;;1.17;;
22778;SDS011;11556;51.194;3.800;2022-07-18T11:31:47;6.18;;;1.65;;
22778;SDS011;11556;51.194;3.800;2022-07-18T11:34:23;5.05;;;1.40;;
22778;SDS011;11556;51.194;3.800;2022-07-18T11:36:49;2.72;;;1.27;;
22778;SDS011;11556;51.194;3.800;2022-07-18T11:39:26;4.68;;;1.30;;
22778;SDS011;11556;51.194;3.800;2022-07-18T11:41:56;2.03;;;1.67;;
22778;SDS011;11556;51.194;3.800;2022-07-18T11:44:22;3.10;;;1.48;;
22778;SDS011;11556;51.194;3.800;2022-07-18T11:47:05;5.25;;;1.60;;
22778;SDS011;11556;51.194;3.800;2022-07-18T11:49:33;6.20;;;1.58;;
22778;SDS011;11556;51.194;3.800;2022-07-18T11:52:00;4.75;;;1.23;;
22778;SDS011;11556;51.194;3.800;2022-07-18T11:54:26;3.20;;;1.50;;
22778;SDS011;11556;51.194;3.800;2022-07-18T11:56:54;4.55;;;1.40;;
22778;SDS011;11556;51.194;3.800;2022-07-18T11:59:21;3.08;;;1.48;;
22778;SDS011;11556;51.194;3.800;2022-07-18T12:01:47;5.97;;;1.50;;
22778;SDS011;11556;51.194;3.800;2022-07-18T12:04:18;5.87;;;1.50;;
22778;SDS011;11556;51.194;3.800;2022-07-18T12:06:45;5.00;;;1.23;;
22778;SDS011;11556;51.194;3.800;2022-07-18T12:09:31;2.75;;;1.65;;
22778;SDS011;11556;51.194;3.800;2022-07-18T12:11:56;3.90;;;1.20;;
22778;SDS011;11556;51.194;3.800;2022-07-18T12:14:35;9.57;;;1.60;;
22778;SDS011;11556;51.194;3.800;2022-07-18T12:17:03;2.28;;;1.45;;
22778;SDS011;11556;51.194;3.800;2022-07-18T12:19:39;3.63;;;1.60;;
22778;SDS011;11556;51.194;3.800;2022-07-18T12:22:09;4.93;;;1.67;;
22778;SDS011;11556;51.194;3.800;2022-07-18T12:32:27;3.45;;;1.60;;
22778;SDS011;11556;51.194;3.800;2022-07-18T12:35:07;3.63;;;1.48;;
22778;SDS011;11556;51.194;3.800;2022-07-18T12:37:38;3.90;;;1.42;;
22778;SDS011;11556;51.194;3.800;2022-07-18T12:42:34;1.40;;;1.30;;
22778;SDS011;11556;51.194;3.800;2022-07-18T12:45:06;6.18;;;1.33;;
22778;SDS011;11556;51.194;3.800;2022-07-18T12:47:36;4.75;;;1.58;;
22778;SDS011;11556;51.194;3.800;2022-07-18T12:50:02;1.83;;;1.30;;
22778;SDS011;11556;51.194;3.800;2022-07-18T12:52:28;4.57;;;1.58;;
22778;SDS011;11556;51.194;3.800;2022-07-18T12:54:54;5.75;;;1.10;;
22778;SDS011;11556;51.194;3.800;2022-07-18T12:57:20;2.65;;;1.27;;
22778;SDS011;11556;51.194;3.800;2022-07-18T12:59:46;3.65;;;1.50;;
22778;SDS011;11556;51.194;3.800;2022-07-18T13:02:12;5.22;;;1.40;;
22778;SDS011;11556;51.194;3.800;2022-07-18T13:04:39;5.97;;;1.40;;
22778;SDS011;11556;51.194;3.800;2022-07-18T13:07:06;3.65;;;1.40;;
22778;SDS011;11556;51.194;3.800;2022-07-18T13:09:32;8.77;;;1.40;;
22778;SDS011;11556;51.194;3.800;2022-07-18T13:11:58;2.53;;;1.38;;
22778;SDS011;11556;51.194;3.800;2022-07-18T13:14:24;2.30;;;1.40;;
22778;SDS011;11556;51.194;3.800;2022-07-18T13:16:50;2.30;;;1.30;;
22778;SDS011;11556;51.194;3.800;2022-07-18T13:19:17;4.65;;;1.48;;
22778;SDS011;11556;51.194;3.800;2022-07-18T13:21:43;5.13;;;1.70;;
22778;SDS011;11556;51.194;3.800;2022-07-18T13:24:11;3.13;;;1.60;;
22778;SDS011;11556;51.194;3.800;2022-07-18T13:26:37;6.63;;;1.33;;
22778;SDS011;11556;51.194;3.800;2022-07-18T13:29:03;5.53;;;1.33;;
22778;SDS011;11556;51.194;3.800;2022-07-18T13:31:30;4.00;;;1.40;;
22778;SDS011;11556;51.194;3.800;2022-07-18T13:33:56;4.75;;;1.48;;
22778;SDS011;11556;51.194;3.800;2022-07-18T13:36:21;3.08;;;1.20;;
22778;SDS011;11556;51.194;3.800;2022-07-18T13:38:47;3.63;;;1.40;;
22778;SDS011;11556;51.194;3.800;2022-07-18T13:41:13;3.20;;;1.60;;
22778;SDS011;11556;51.194;3.800;2022-07-18T13:43:39;3.13;;;1.42;;
22778;SDS011;11556;51.194;3.800;2022-07-18T13:46:09;3.45;;;1.90;;
22778;SDS011;11556;51.194;3.800;2022-07-18T13:48:36;2.38;;;1.35;;
22778;SDS011;11556;51.194;3.800;2022-07-18T13:51:03;3.67;;;1.27;;
22778;SDS011;11556;51.194;3.800;2022-07-18T13:53:29;2.65;;;1.30;;
22778;SDS011;11556;51.194;3.800;2022-07-18T13:55:55;4.35;;;1.67;;
22778;SDS011;11556;51.194;3.800;2022-07-18T13:58:21;4.38;;;1.20;;
22778;SDS011;11556;51.194;3.800;2022-07-18T14:00:47;3.20;;;1.40;;
22778;SDS011;11556;51.194;3.800;2022-07-18T14:03:13;3.42;;;1.30;;
22778;SDS011;11556;51.194;3.800;2022-07-18T14:05:39;2.13;;;1.20;;
22778;SDS011;11556;51.194;3.800;2022-07-18T14:08:06;4.13;;;1.52;;
22778;SDS011;11556;51.194;3.800;2022-07-18T14:10:33;5.25;;;1.30;;
22778;SDS011;11556;51.194;3.800;2022-07-18T14:13:01;3.03;;;1.48;;
22778;SDS011;11556;51.194;3.800;2022-07-18T14:15:27;4.38;;;1.15;;
22778;SDS011;11556;51.194;3.800;2022-07-18T14:17:53;3.30;;;1.42;;
22778;SDS011;11556;51.194;3.800;2022-07-18T14:20:19;2.83;;;1.35;;
22778;SDS011;11556;51.194;3.800;2022-07-18T14:22:46;3.20;;;1.25;;
22778;SDS011;11556;51.194;3.800;2022-07-18T14:25:14;3.65;;;1.40;;
22778;SDS011;11556;51.194;3.800;2022-07-18T14:27:42;2.90;;;1.40;;
22778;SDS011;11556;51.194;3.800;2022-07-18T14:30:09;1.73;;;1.50;;
22778;SDS011;11556;51.194;3.800;2022-07-18T14:32:37;5.38;;;1.50;;
22778;SDS011;11556;51.194;3.800;2022-07-18T14:35:03;5.72;;;1.20;;
22778;SDS011;11556;51.194;3.800;2022-07-18T14:37:29;3.38;;;1.30;;
22778;SDS011;11556;51.194;3.800;2022-07-18T14:39:55;3.78;;;1.40;;
22778;SDS011;11556;51.194;3.800;2022-07-18T14:42:20;4.50;;;1.48;;
22778;SDS011;11556;51.194;3.800;2022-07-18T14:44:46;3.83;;;1.20;;
22778;SDS011;11556;51.194;3.800;2022-07-18T14:47:12;1.92;;;1.30;;
22778;SDS011;11556;51.194;3.800;2022-07-18T14:49:37;2.97;;;1.10;;
22778;SDS011;11556;51.194;3.800;2022-07-18T14:52:03;2.47;;;1.20;;
22778;SDS011;11556;51.194;3.800;2022-07-18T14:54:29;2.85;;;1.40;;
22778;SDS011;11556;51.194;3.800;2022-07-18T14:56:55;3.25;;;1.00;;
22778;SDS011;11556;51.194;3.800;2022-07-18T14:59:22;3.35;;;1.20;;
22778;SDS011;11556;51.194;3.800;2022-07-18T15:01:47;1.77;;;1.20;;
22778;SDS011;11556;51.194;3.800;2022-07-18T15:04:14;5.40;;;1.52;;
22778;SDS011;11556;51.194;3.800;2022-07-18T15:06:40;2.85;;;1.23;;
22778;SDS011;11556;51.194;3.800;2022-07-18T15:09:06;2.38;;;1.10;;
22778;SDS011;11556;51.194;3.800;2022-07-18T15:11:34;3.20;;;1.38;;
22778;SDS011;11556;51.194;3.800;2022-07-18T15:14:00;2.78;;;1.15;;
22778;SDS011;11556;51.194;3.800;2022-07-18T15:16:26;3.88;;;1.58;;
22778;SDS011;11556;51.194;3.800;2022-07-18T15:18:52;3.63;;;1.30;;
22778;SDS011;11556;51.194;3.800;2022-07-18T15:21:18;5.72;;;1.67;;
22778;SDS011;11556;51.194;3.800;2022-07-18T15:23:43;3.50;;;1.25;;
22778;SDS011;11556;51.194;3.800;2022-07-18T15:26:09;3.28;;;1.40;;
22778;SDS011;11556;51.194;3.800;2022-07-18T15:28:34;4.78;;;1.13;;
22778;SDS011;11556;51.194;3.800;2022-07-18T15:31:00;3.08;;;1.60;;
22778;SDS011;11556;51.194;3.800;2022-07-18T15:33:26;2.30;;;1.35;;
22778;SDS011;11556;51.194;3.800;2022-07-18T15:35:51;4.53;;;1.38;;
22778;SDS011;11556;51.194;3.800;2022-07-18T15:38:17;2.85;;;1.40;;
22778;SDS011;11556;51.194;3.800;2022-07-18T15:40:42;4.32;;;1.60;;
22778;SDS011;11556;51.194;3.800;2022-07-18T15:43:11;5.15;;;1.40;;
22778;SDS011;11556;51.194;3.800;2022-07-18T15:45:36;2.15;;;1.02;;
22778;SDS011;11556;51.194;3.800;2022-07-18T15:48:02;3.33;;;1.15;;